sensor_id;sensor_type;location;lat;lon;timestamp;P1;durP1;ratioP1;P2;durP2;ratioP2
18623;SDS011;9441;51.420;7.036;2024-03-06T00:00:45;57.00;;;25.87;;
18623;SDS011;9441;51.420;7.036;2024-03-06T00:01:47;58.53;;;25.50;;
18623;SDS011;9441;51.420;7.036;2024-03-06T00:02:48;53.73;;;24.30;;
18623;SDS011;9441;51.420;7.036;2024-03-06T00:03:50;55.47;;;24.07;;
18623;SDS011;9441;51.420;7.036;2024-03-06T00:04:51;57.73;;;24.63;;
18623;SDS011;9441;51.420;7.036;2024-03-06T00:05:54;52.73;;;23.40;;
18623;SDS011;9441;51.420;7.036;2024-03-06T00:06:55;53.03;;;23.23;;
18623;SDS011;9441;51.420;7.036;2024-03-06T00:07:58;56.60;;;23.67;;
18623;SDS011;9441;51.420;7.036;2024-03-06T00:09:00;53.63;;;23.50;;
18623;SDS011;9441;51.420;7.036;2024-03-06T00:10:05;51.47;;;23.20;;
18623;SDS011;9441;51.420;7.036;2024-03-06T00:11:06;58.70;;;24.80;;
18623;SDS011;9441;51.420;7.036;2024-03-06T00:12:08;51.03;;;23.50;;
18623;SDS011;9441;51.420;7.036;2024-03-06T00:13:09;59.73;;;24.27;;
18623;SDS011;9441;51.420;7.036;2024-03-06T00:14:11;60.07;;;24.87;;
18623;SDS011;9441;51.420;7.036;2024-03-06T00:15:12;65.03;;;26.77;;
18623;SDS011;9441;51.420;7.036;2024-03-06T00:16:14;72.00;;;27.17;;
18623;SDS011;9441;51.420;7.036;2024-03-06T00:17:15;67.37;;;26.37;;
18623;SDS011;9441;51.420;7.036;2024-03-06T00:18:17;66.63;;;24.70;;
18623;SDS011;9441;51.420;7.036;2024-03-06T00:19:27;70.17;;;25.93;;
18623;SDS011;9441;51.420;7.036;2024-03-06T00:20:29;65.50;;;26.00;;
18623;SDS011;9441;51.420;7.036;2024-03-06T00:21:30;68.23;;;26.70;;
18623;SDS011;9441;51.420;7.036;2024-03-06T00:22:32;76.20;;;26.67;;
18623;SDS011;9441;51.420;7.036;2024-03-06T00:23:33;72.10;;;26.67;;
18623;SDS011;9441;51.420;7.036;2024-03-06T00:24:35;75.20;;;26.50;;
18623;SDS011;9441;51.420;7.036;2024-03-06T00:25:38;66.73;;;26.47;;
18623;SDS011;9441;51.420;7.036;2024-03-06T00:26:40;71.27;;;26.90;;
18623;SDS011;9441;51.420;7.036;2024-03-06T00:27:41;60.40;;;25.43;;
18623;SDS011;9441;51.420;7.036;2024-03-06T00:28:43;63.60;;;26.67;;
18623;SDS011;9441;51.420;7.036;2024-03-06T00:29:45;69.90;;;27.33;;
18623;SDS011;9441;51.420;7.036;2024-03-06T00:30:47;60.80;;;27.53;;
18623;SDS011;9441;51.420;7.036;2024-03-06T00:31:48;64.40;;;27.60;;
18623;SDS011;9441;51.420;7.036;2024-03-06T00:32:49;56.33;;;25.23;;
18623;SDS011;9441;51.420;7.036;2024-03-06T00:33:51;61.67;;;27.20;;
18623;SDS011;9441;51.420;7.036;2024-03-06T00:34:52;55.07;;;25.43;;
18623;SDS011;9441;51.420;7.036;2024-03-06T00:35:54;57.93;;;26.17;;
18623;SDS011;9441;51.420;7.036;2024-03-06T00:36:55;61.13;;;26.27;;
18623;SDS011;9441;51.420;7.036;2024-03-06T00:37:57;60.60;;;26.97;;
18623;SDS011;9441;51.420;7.036;2024-03-06T00:39:02;54.90;;;25.73;;
18623;SDS011;9441;51.420;7.036;2024-03-06T00:40:05;60.70;;;25.70;;
18623;SDS011;9441;51.420;7.036;2024-03-06T00:41:09;64.07;;;26.90;;
18623;SDS011;9441;51.420;7.036;2024-03-06T00:42:11;64.03;;;27.47;;
18623;SDS011;9441;51.420;7.036;2024-03-06T00:43:14;61.73;;;26.97;;
18623;SDS011;9441;51.420;7.036;2024-03-06T00:44:16;63.13;;;27.20;;
18623;SDS011;9441;51.420;7.036;2024-03-06T00:45:17;61.97;;;27.00;;
18623;SDS011;9441;51.420;7.036;2024-03-06T00:46:19;60.53;;;26.40;;
18623;SDS011;9441;51.420;7.036;2024-03-06T00:47:20;60.43;;;27.33;;
18623;SDS011;9441;51.420;7.036;2024-03-06T00:48:22;71.13;;;29.93;;
18623;SDS011;9441;51.420;7.036;2024-03-06T00:49:24;64.93;;;27.83;;
18623;SDS011;9441;51.420;7.036;2024-03-06T00:50:26;66.27;;;28.93;;
18623;SDS011;9441;51.420;7.036;2024-03-06T00:51:28;59.13;;;26.53;;
18623;SDS011;9441;51.420;7.036;2024-03-06T00:52:29;68.53;;;27.27;;
18623;SDS011;9441;51.420;7.036;2024-03-06T00:53:31;59.97;;;26.03;;
18623;SDS011;9441;51.420;7.036;2024-03-06T00:54:32;61.23;;;26.80;;
18623;SDS011;9441;51.420;7.036;2024-03-06T00:55:34;60.20;;;25.83;;
18623;SDS011;9441;51.420;7.036;2024-03-06T00:56:38;59.40;;;26.87;;
18623;SDS011;9441;51.420;7.036;2024-03-06T00:57:39;68.20;;;26.93;;
18623;SDS011;9441;51.420;7.036;2024-03-06T00:58:41;56.80;;;25.60;;
18623;SDS011;9441;51.420;7.036;2024-03-06T00:59:42;55.80;;;24.17;;
18623;SDS011;9441;51.420;7.036;2024-03-06T01:00:44;57.53;;;26.23;;
18623;SDS011;9441;51.420;7.036;2024-03-06T01:01:45;54.43;;;25.23;;
18623;SDS011;9441;51.420;7.036;2024-03-06T01:02:47;55.50;;;24.83;;
18623;SDS011;9441;51.420;7.036;2024-03-06T01:03:48;58.97;;;25.00;;
18623;SDS011;9441;51.420;7.036;2024-03-06T01:04:50;56.37;;;25.00;;
18623;SDS011;9441;51.420;7.036;2024-03-06T01:05:51;61.67;;;26.93;;
18623;SDS011;9441;51.420;7.036;2024-03-06T01:06:53;59.40;;;26.37;;
18623;SDS011;9441;51.420;7.036;2024-03-06T01:07:54;59.40;;;25.97;;
18623;SDS011;9441;51.420;7.036;2024-03-06T01:08:57;60.73;;;27.10;;
18623;SDS011;9441;51.420;7.036;2024-03-06T01:09:59;68.83;;;28.40;;
18623;SDS011;9441;51.420;7.036;2024-03-06T01:11:03;65.37;;;27.70;;
18623;SDS011;9441;51.420;7.036;2024-03-06T01:12:06;57.27;;;25.83;;
18623;SDS011;9441;51.420;7.036;2024-03-06T01:13:08;67.10;;;28.30;;
18623;SDS011;9441;51.420;7.036;2024-03-06T01:14:11;67.23;;;28.47;;
18623;SDS011;9441;51.420;7.036;2024-03-06T01:15:13;64.73;;;27.80;;
18623;SDS011;9441;51.420;7.036;2024-03-06T01:16:14;70.43;;;29.00;;
18623;SDS011;9441;51.420;7.036;2024-03-06T01:17:15;62.73;;;26.30;;
18623;SDS011;9441;51.420;7.036;2024-03-06T01:18:17;65.73;;;26.87;;
18623;SDS011;9441;51.420;7.036;2024-03-06T01:19:18;57.17;;;25.57;;
18623;SDS011;9441;51.420;7.036;2024-03-06T01:20:22;58.20;;;26.13;;
18623;SDS011;9441;51.420;7.036;2024-03-06T01:21:24;65.17;;;25.43;;
18623;SDS011;9441;51.420;7.036;2024-03-06T01:22:26;53.30;;;25.40;;
18623;SDS011;9441;51.420;7.036;2024-03-06T01:23:27;57.17;;;24.47;;
18623;SDS011;9441;51.420;7.036;2024-03-06T01:24:29;56.07;;;25.47;;
18623;SDS011;9441;51.420;7.036;2024-03-06T01:25:30;61.23;;;25.87;;
18623;SDS011;9441;51.420;7.036;2024-03-06T01:26:32;57.70;;;25.47;;
18623;SDS011;9441;51.420;7.036;2024-03-06T01:27:34;58.57;;;24.93;;
18623;SDS011;9441;51.420;7.036;2024-03-06T01:28:36;56.60;;;24.77;;
18623;SDS011;9441;51.420;7.036;2024-03-06T01:29:37;58.30;;;25.40;;
18623;SDS011;9441;51.420;7.036;2024-03-06T01:30:39;52.70;;;23.97;;
18623;SDS011;9441;51.420;7.036;2024-03-06T01:31:40;54.33;;;25.47;;
18623;SDS011;9441;51.420;7.036;2024-03-06T01:32:42;53.13;;;22.73;;
18623;SDS011;9441;51.420;7.036;2024-03-06T01:33:43;45.57;;;21.03;;
18623;SDS011;9441;51.420;7.036;2024-03-06T01:34:45;44.47;;;20.77;;
18623;SDS011;9441;51.420;7.036;2024-03-06T01:35:46;52.33;;;21.20;;
18623;SDS011;9441;51.420;7.036;2024-03-06T01:36:48;45.73;;;20.57;;
18623;SDS011;9441;51.420;7.036;2024-03-06T01:37:49;51.40;;;21.30;;
18623;SDS011;9441;51.420;7.036;2024-03-06T01:38:50;50.23;;;21.23;;
18623;SDS011;9441;51.420;7.036;2024-03-06T01:39:52;51.60;;;21.73;;
18623;SDS011;9441;51.420;7.036;2024-03-06T01:40:53;50.37;;;21.67;;
18623;SDS011;9441;51.420;7.036;2024-03-06T01:41:56;46.47;;;21.40;;
18623;SDS011;9441;51.420;7.036;2024-03-06T01:42:58;44.37;;;20.83;;
18623;SDS011;9441;51.420;7.036;2024-03-06T01:44:01;48.87;;;21.67;;
18623;SDS011;9441;51.420;7.036;2024-03-06T01:45:04;57.27;;;23.63;;
18623;SDS011;9441;51.420;7.036;2024-03-06T01:46:07;51.80;;;22.47;;
18623;SDS011;9441;51.420;7.036;2024-03-06T01:47:08;47.90;;;21.93;;
18623;SDS011;9441;51.420;7.036;2024-03-06T01:48:10;47.73;;;22.13;;
18623;SDS011;9441;51.420;7.036;2024-03-06T01:49:11;45.70;;;21.43;;
18623;SDS011;9441;51.420;7.036;2024-03-06T01:50:14;46.87;;;21.23;;
18623;SDS011;9441;51.420;7.036;2024-03-06T01:51:15;47.50;;;20.73;;
18623;SDS011;9441;51.420;7.036;2024-03-06T01:52:17;50.53;;;20.97;;
18623;SDS011;9441;51.420;7.036;2024-03-06T01:53:21;45.00;;;19.13;;
18623;SDS011;9441;51.420;7.036;2024-03-06T01:54:24;44.43;;;20.10;;
18623;SDS011;9441;51.420;7.036;2024-03-06T01:55:26;54.60;;;21.13;;
18623;SDS011;9441;51.420;7.036;2024-03-06T01:56:28;48.17;;;20.53;;
18623;SDS011;9441;51.420;7.036;2024-03-06T01:57:29;47.97;;;21.00;;
18623;SDS011;9441;51.420;7.036;2024-03-06T01:58:33;50.93;;;21.27;;
18623;SDS011;9441;51.420;7.036;2024-03-06T01:59:34;51.80;;;21.87;;
18623;SDS011;9441;51.420;7.036;2024-03-06T02:00:36;47.67;;;21.63;;
18623;SDS011;9441;51.420;7.036;2024-03-06T02:01:37;51.77;;;22.23;;
18623;SDS011;9441;51.420;7.036;2024-03-06T02:02:41;48.50;;;20.93;;
18623;SDS011;9441;51.420;7.036;2024-03-06T02:03:43;51.57;;;20.70;;
18623;SDS011;9441;51.420;7.036;2024-03-06T02:04:46;49.17;;;20.70;;
18623;SDS011;9441;51.420;7.036;2024-03-06T02:05:48;46.17;;;20.17;;
18623;SDS011;9441;51.420;7.036;2024-03-06T02:06:50;44.37;;;20.00;;
18623;SDS011;9441;51.420;7.036;2024-03-06T02:07:52;45.83;;;19.80;;
18623;SDS011;9441;51.420;7.036;2024-03-06T02:08:55;45.33;;;20.53;;
18623;SDS011;9441;51.420;7.036;2024-03-06T02:09:56;51.10;;;20.60;;
18623;SDS011;9441;51.420;7.036;2024-03-06T02:10:59;50.10;;;20.77;;
18623;SDS011;9441;51.420;7.036;2024-03-06T02:12:02;49.87;;;21.10;;
18623;SDS011;9441;51.420;7.036;2024-03-06T02:13:05;47.57;;;21.33;;
18623;SDS011;9441;51.420;7.036;2024-03-06T02:14:07;50.47;;;20.37;;
18623;SDS011;9441;51.420;7.036;2024-03-06T02:15:11;45.20;;;21.37;;
18623;SDS011;9441;51.420;7.036;2024-03-06T02:16:12;48.50;;;21.30;;
18623;SDS011;9441;51.420;7.036;2024-03-06T02:17:15;45.43;;;21.13;;
18623;SDS011;9441;51.420;7.036;2024-03-06T02:18:16;44.63;;;20.87;;
18623;SDS011;9441;51.420;7.036;2024-03-06T02:19:18;44.77;;;20.73;;
18623;SDS011;9441;51.420;7.036;2024-03-06T02:20:22;42.00;;;20.17;;
18623;SDS011;9441;51.420;7.036;2024-03-06T02:21:24;47.93;;;21.03;;
18623;SDS011;9441;51.420;7.036;2024-03-06T02:22:27;45.87;;;21.57;;
18623;SDS011;9441;51.420;7.036;2024-03-06T02:23:28;49.60;;;21.30;;
18623;SDS011;9441;51.420;7.036;2024-03-06T02:24:30;49.33;;;22.27;;
18623;SDS011;9441;51.420;7.036;2024-03-06T02:25:31;57.07;;;23.73;;
18623;SDS011;9441;51.420;7.036;2024-03-06T02:26:32;52.23;;;22.07;;
18623;SDS011;9441;51.420;7.036;2024-03-06T02:27:34;49.93;;;21.97;;
18623;SDS011;9441;51.420;7.036;2024-03-06T02:28:35;52.23;;;23.20;;
18623;SDS011;9441;51.420;7.036;2024-03-06T02:29:37;53.60;;;22.17;;
18623;SDS011;9441;51.420;7.036;2024-03-06T02:30:38;52.63;;;22.07;;
18623;SDS011;9441;51.420;7.036;2024-03-06T02:31:40;52.27;;;22.37;;
18623;SDS011;9441;51.420;7.036;2024-03-06T02:32:42;55.00;;;23.70;;
18623;SDS011;9441;51.420;7.036;2024-03-06T02:33:45;59.50;;;23.00;;
18623;SDS011;9441;51.420;7.036;2024-03-06T02:34:47;54.70;;;22.97;;
18623;SDS011;9441;51.420;7.036;2024-03-06T02:35:51;56.07;;;23.70;;
18623;SDS011;9441;51.420;7.036;2024-03-06T02:36:52;53.60;;;23.57;;
18623;SDS011;9441;51.420;7.036;2024-03-06T02:37:54;49.10;;;21.40;;
18623;SDS011;9441;51.420;7.036;2024-03-06T02:38:57;57.47;;;24.03;;
18623;SDS011;9441;51.420;7.036;2024-03-06T02:39:59;55.43;;;23.17;;
18623;SDS011;9441;51.420;7.036;2024-03-06T02:41:00;53.23;;;22.87;;
18623;SDS011;9441;51.420;7.036;2024-03-06T02:42:01;52.40;;;22.67;;
18623;SDS011;9441;51.420;7.036;2024-03-06T02:43:04;50.90;;;22.33;;
18623;SDS011;9441;51.420;7.036;2024-03-06T02:44:05;52.53;;;21.90;;
18623;SDS011;9441;51.420;7.036;2024-03-06T02:45:07;56.73;;;23.03;;
18623;SDS011;9441;51.420;7.036;2024-03-06T02:46:09;52.17;;;23.53;;
18623;SDS011;9441;51.420;7.036;2024-03-06T02:47:11;51.20;;;23.23;;
18623;SDS011;9441;51.420;7.036;2024-03-06T02:48:12;59.67;;;24.17;;
18623;SDS011;9441;51.420;7.036;2024-03-06T02:49:14;51.90;;;23.23;;
18623;SDS011;9441;51.420;7.036;2024-03-06T02:50:15;56.43;;;24.17;;
18623;SDS011;9441;51.420;7.036;2024-03-06T02:51:19;49.80;;;22.53;;
18623;SDS011;9441;51.420;7.036;2024-03-06T02:52:20;54.07;;;22.43;;
18623;SDS011;9441;51.420;7.036;2024-03-06T02:53:22;50.20;;;22.63;;
18623;SDS011;9441;51.420;7.036;2024-03-06T02:54:25;53.27;;;22.13;;
18623;SDS011;9441;51.420;7.036;2024-03-06T02:55:27;44.17;;;21.67;;
18623;SDS011;9441;51.420;7.036;2024-03-06T02:56:28;54.53;;;22.30;;
18623;SDS011;9441;51.420;7.036;2024-03-06T02:57:30;49.63;;;22.67;;
18623;SDS011;9441;51.420;7.036;2024-03-06T02:58:32;51.63;;;22.90;;
18623;SDS011;9441;51.420;7.036;2024-03-06T02:59:39;50.83;;;23.00;;
18623;SDS011;9441;51.420;7.036;2024-03-06T03:00:40;50.13;;;22.57;;
18623;SDS011;9441;51.420;7.036;2024-03-06T03:01:42;49.77;;;22.47;;
18623;SDS011;9441;51.420;7.036;2024-03-06T03:02:43;53.90;;;22.73;;
18623;SDS011;9441;51.420;7.036;2024-03-06T03:03:45;52.60;;;21.97;;
18623;SDS011;9441;51.420;7.036;2024-03-06T03:04:47;52.30;;;22.37;;
18623;SDS011;9441;51.420;7.036;2024-03-06T03:05:49;54.60;;;23.03;;
18623;SDS011;9441;51.420;7.036;2024-03-06T03:06:51;51.73;;;22.60;;
18623;SDS011;9441;51.420;7.036;2024-03-06T03:07:54;52.77;;;24.10;;
18623;SDS011;9441;51.420;7.036;2024-03-06T03:08:56;55.20;;;23.40;;
18623;SDS011;9441;51.420;7.036;2024-03-06T03:09:58;54.50;;;22.80;;
18623;SDS011;9441;51.420;7.036;2024-03-06T03:10:58;57.97;;;22.90;;
18623;SDS011;9441;51.420;7.036;2024-03-06T03:12:01;53.77;;;23.63;;
18623;SDS011;9441;51.420;7.036;2024-03-06T03:13:02;52.10;;;24.50;;
18623;SDS011;9441;51.420;7.036;2024-03-06T03:14:05;56.13;;;24.17;;
18623;SDS011;9441;51.420;7.036;2024-03-06T03:15:07;50.73;;;23.50;;
18623;SDS011;9441;51.420;7.036;2024-03-06T03:16:15;56.77;;;24.47;;
18623;SDS011;9441;51.420;7.036;2024-03-06T03:17:17;58.43;;;24.27;;
18623;SDS011;9441;51.420;7.036;2024-03-06T03:18:20;55.67;;;23.57;;
18623;SDS011;9441;51.420;7.036;2024-03-06T03:19:21;50.77;;;23.33;;
18623;SDS011;9441;51.420;7.036;2024-03-06T03:20:22;58.57;;;24.97;;
18623;SDS011;9441;51.420;7.036;2024-03-06T03:21:23;54.47;;;22.50;;
18623;SDS011;9441;51.420;7.036;2024-03-06T03:22:27;58.67;;;25.47;;
18623;SDS011;9441;51.420;7.036;2024-03-06T03:23:28;61.03;;;26.27;;
18623;SDS011;9441;51.420;7.036;2024-03-06T03:24:30;62.73;;;25.13;;
18623;SDS011;9441;51.420;7.036;2024-03-06T03:25:31;58.03;;;25.37;;
18623;SDS011;9441;51.420;7.036;2024-03-06T03:26:33;54.73;;;23.90;;
18623;SDS011;9441;51.420;7.036;2024-03-06T03:27:36;58.57;;;25.70;;
18623;SDS011;9441;51.420;7.036;2024-03-06T03:28:38;60.53;;;25.40;;
18623;SDS011;9441;51.420;7.036;2024-03-06T03:29:40;57.23;;;24.37;;
18623;SDS011;9441;51.420;7.036;2024-03-06T03:30:42;56.93;;;24.30;;
18623;SDS011;9441;51.420;7.036;2024-03-06T03:31:44;69.30;;;26.23;;
18623;SDS011;9441;51.420;7.036;2024-03-06T03:32:46;57.57;;;24.43;;
18623;SDS011;9441;51.420;7.036;2024-03-06T03:33:47;59.40;;;24.47;;
18623;SDS011;9441;51.420;7.036;2024-03-06T03:34:51;55.43;;;23.73;;
18623;SDS011;9441;51.420;7.036;2024-03-06T03:35:54;46.77;;;21.27;;
18623;SDS011;9441;51.420;7.036;2024-03-06T03:36:55;49.87;;;21.53;;
18623;SDS011;9441;51.420;7.036;2024-03-06T03:37:59;51.83;;;23.50;;
18623;SDS011;9441;51.420;7.036;2024-03-06T03:39:00;54.40;;;24.10;;
18623;SDS011;9441;51.420;7.036;2024-03-06T03:40:04;61.30;;;25.13;;
18623;SDS011;9441;51.420;7.036;2024-03-06T03:41:07;56.23;;;24.33;;
18623;SDS011;9441;51.420;7.036;2024-03-06T03:42:09;54.50;;;24.17;;
18623;SDS011;9441;51.420;7.036;2024-03-06T03:43:10;49.00;;;22.53;;
18623;SDS011;9441;51.420;7.036;2024-03-06T03:44:12;52.10;;;21.43;;
18623;SDS011;9441;51.420;7.036;2024-03-06T03:45:14;48.57;;;21.10;;
18623;SDS011;9441;51.420;7.036;2024-03-06T03:46:16;47.43;;;21.50;;
18623;SDS011;9441;51.420;7.036;2024-03-06T03:47:16;45.10;;;20.97;;
18623;SDS011;9441;51.420;7.036;2024-03-06T03:48:19;54.00;;;22.03;;
18623;SDS011;9441;51.420;7.036;2024-03-06T03:49:19;54.80;;;23.20;;
18623;SDS011;9441;51.420;7.036;2024-03-06T03:50:21;49.70;;;21.30;;
18623;SDS011;9441;51.420;7.036;2024-03-06T03:51:22;43.40;;;20.17;;
18623;SDS011;9441;51.420;7.036;2024-03-06T03:52:24;45.20;;;21.00;;
18623;SDS011;9441;51.420;7.036;2024-03-06T03:53:27;51.10;;;21.23;;
18623;SDS011;9441;51.420;7.036;2024-03-06T03:54:29;42.60;;;20.93;;
18623;SDS011;9441;51.420;7.036;2024-03-06T03:55:30;49.43;;;21.53;;
18623;SDS011;9441;51.420;7.036;2024-03-06T03:56:32;41.87;;;19.30;;
18623;SDS011;9441;51.420;7.036;2024-03-06T03:57:33;41.27;;;19.83;;
18623;SDS011;9441;51.420;7.036;2024-03-06T03:58:35;45.37;;;20.67;;
18623;SDS011;9441;51.420;7.036;2024-03-06T03:59:38;43.70;;;19.67;;
18623;SDS011;9441;51.420;7.036;2024-03-06T04:00:41;39.23;;;19.53;;
18623;SDS011;9441;51.420;7.036;2024-03-06T04:01:44;39.43;;;18.60;;
18623;SDS011;9441;51.420;7.036;2024-03-06T04:02:46;38.43;;;19.03;;
18623;SDS011;9441;51.420;7.036;2024-03-06T04:03:48;36.13;;;17.90;;
18623;SDS011;9441;51.420;7.036;2024-03-06T04:04:51;38.27;;;18.93;;
18623;SDS011;9441;51.420;7.036;2024-03-06T04:05:52;37.93;;;17.83;;
18623;SDS011;9441;51.420;7.036;2024-03-06T04:06:54;34.33;;;18.00;;
18623;SDS011;9441;51.420;7.036;2024-03-06T04:07:54;34.50;;;17.97;;
18623;SDS011;9441;51.420;7.036;2024-03-06T04:08:58;34.23;;;17.57;;
18623;SDS011;9441;51.420;7.036;2024-03-06T04:09:59;37.30;;;18.03;;
18623;SDS011;9441;51.420;7.036;2024-03-06T04:11:01;35.73;;;17.83;;
18623;SDS011;9441;51.420;7.036;2024-03-06T04:12:02;35.07;;;18.03;;
18623;SDS011;9441;51.420;7.036;2024-03-06T04:13:04;39.47;;;18.03;;
18623;SDS011;9441;51.420;7.036;2024-03-06T04:14:06;33.47;;;17.60;;
18623;SDS011;9441;51.420;7.036;2024-03-06T04:15:09;37.03;;;18.40;;
18623;SDS011;9441;51.420;7.036;2024-03-06T04:16:10;32.60;;;17.30;;
18623;SDS011;9441;51.420;7.036;2024-03-06T04:17:17;37.40;;;18.23;;
18623;SDS011;9441;51.420;7.036;2024-03-06T04:18:18;35.00;;;17.97;;
18623;SDS011;9441;51.420;7.036;2024-03-06T04:19:20;32.53;;;17.83;;
18623;SDS011;9441;51.420;7.036;2024-03-06T04:20:21;33.53;;;18.07;;
18623;SDS011;9441;51.420;7.036;2024-03-06T04:21:22;34.70;;;17.03;;
18623;SDS011;9441;51.420;7.036;2024-03-06T04:22:24;36.40;;;17.63;;
18623;SDS011;9441;51.420;7.036;2024-03-06T04:23:25;36.07;;;18.37;;
18623;SDS011;9441;51.420;7.036;2024-03-06T04:24:29;37.07;;;18.10;;
18623;SDS011;9441;51.420;7.036;2024-03-06T04:25:30;34.00;;;18.47;;
18623;SDS011;9441;51.420;7.036;2024-03-06T04:26:32;37.53;;;18.27;;
18623;SDS011;9441;51.420;7.036;2024-03-06T04:27:33;36.13;;;18.40;;
18623;SDS011;9441;51.420;7.036;2024-03-06T04:28:35;38.73;;;18.33;;
18623;SDS011;9441;51.420;7.036;2024-03-06T04:29:36;34.00;;;18.43;;
18623;SDS011;9441;51.420;7.036;2024-03-06T04:30:38;32.90;;;17.87;;
18623;SDS011;9441;51.420;7.036;2024-03-06T04:31:39;38.33;;;18.23;;
18623;SDS011;9441;51.420;7.036;2024-03-06T04:32:41;35.30;;;18.60;;
18623;SDS011;9441;51.420;7.036;2024-03-06T04:33:42;33.03;;;17.70;;
18623;SDS011;9441;51.420;7.036;2024-03-06T04:34:44;35.10;;;18.53;;
18623;SDS011;9441;51.420;7.036;2024-03-06T04:35:46;35.07;;;18.40;;
18623;SDS011;9441;51.420;7.036;2024-03-06T04:36:47;43.00;;;19.07;;
18623;SDS011;9441;51.420;7.036;2024-03-06T04:37:49;33.83;;;18.20;;
18623;SDS011;9441;51.420;7.036;2024-03-06T04:38:50;35.80;;;18.17;;
18623;SDS011;9441;51.420;7.036;2024-03-06T04:39:53;34.40;;;18.17;;
18623;SDS011;9441;51.420;7.036;2024-03-06T04:40:55;35.03;;;18.27;;
18623;SDS011;9441;51.420;7.036;2024-03-06T04:41:56;37.00;;;17.93;;
18623;SDS011;9441;51.420;7.036;2024-03-06T04:42:58;36.37;;;17.40;;
18623;SDS011;9441;51.420;7.036;2024-03-06T04:43:59;36.23;;;18.03;;
18623;SDS011;9441;51.420;7.036;2024-03-06T04:45:01;33.73;;;17.30;;
18623;SDS011;9441;51.420;7.036;2024-03-06T04:46:03;34.03;;;18.00;;
18623;SDS011;9441;51.420;7.036;2024-03-06T04:47:05;35.43;;;17.10;;
18623;SDS011;9441;51.420;7.036;2024-03-06T04:48:07;32.80;;;17.50;;
18623;SDS011;9441;51.420;7.036;2024-03-06T04:49:09;36.27;;;17.97;;
18623;SDS011;9441;51.420;7.036;2024-03-06T04:50:10;33.43;;;17.50;;
18623;SDS011;9441;51.420;7.036;2024-03-06T04:51:14;34.03;;;17.83;;
18623;SDS011;9441;51.420;7.036;2024-03-06T04:52:16;35.60;;;18.60;;
18623;SDS011;9441;51.420;7.036;2024-03-06T04:53:17;36.87;;;18.07;;
18623;SDS011;9441;51.420;7.036;2024-03-06T04:54:20;35.83;;;17.50;;
18623;SDS011;9441;51.420;7.036;2024-03-06T04:55:23;38.73;;;18.67;;
18623;SDS011;9441;51.420;7.036;2024-03-06T04:56:25;36.93;;;18.63;;
18623;SDS011;9441;51.420;7.036;2024-03-06T04:57:27;37.53;;;19.30;;
18623;SDS011;9441;51.420;7.036;2024-03-06T04:58:28;37.20;;;17.93;;
18623;SDS011;9441;51.420;7.036;2024-03-06T04:59:30;36.00;;;18.63;;
18623;SDS011;9441;51.420;7.036;2024-03-06T05:00:31;37.07;;;17.57;;
18623;SDS011;9441;51.420;7.036;2024-03-06T05:01:33;41.97;;;19.20;;
18623;SDS011;9441;51.420;7.036;2024-03-06T05:02:34;36.03;;;18.33;;
18623;SDS011;9441;51.420;7.036;2024-03-06T05:03:37;38.80;;;18.43;;
18623;SDS011;9441;51.420;7.036;2024-03-06T05:04:38;38.00;;;18.37;;
18623;SDS011;9441;51.420;7.036;2024-03-06T05:05:40;32.37;;;17.17;;
18623;SDS011;9441;51.420;7.036;2024-03-06T05:06:41;40.13;;;18.27;;
18623;SDS011;9441;51.420;7.036;2024-03-06T05:07:43;36.03;;;17.87;;
18623;SDS011;9441;51.420;7.036;2024-03-06T05:08:44;40.57;;;19.67;;
18623;SDS011;9441;51.420;7.036;2024-03-06T05:09:46;35.47;;;17.47;;
18623;SDS011;9441;51.420;7.036;2024-03-06T05:10:49;41.60;;;18.57;;
18623;SDS011;9441;51.420;7.036;2024-03-06T05:11:50;42.27;;;19.63;;
18623;SDS011;9441;51.420;7.036;2024-03-06T05:12:52;38.20;;;18.50;;
18623;SDS011;9441;51.420;7.036;2024-03-06T05:13:54;36.27;;;17.50;;
18623;SDS011;9441;51.420;7.036;2024-03-06T05:14:56;34.77;;;18.00;;
18623;SDS011;9441;51.420;7.036;2024-03-06T05:15:57;37.83;;;18.53;;
18623;SDS011;9441;51.420;7.036;2024-03-06T05:16:58;39.73;;;17.70;;
18623;SDS011;9441;51.420;7.036;2024-03-06T05:18:00;41.20;;;17.63;;
18623;SDS011;9441;51.420;7.036;2024-03-06T05:19:01;40.13;;;19.03;;
18623;SDS011;9441;51.420;7.036;2024-03-06T05:20:03;42.40;;;18.43;;
18623;SDS011;9441;51.420;7.036;2024-03-06T05:21:05;42.90;;;18.57;;
18623;SDS011;9441;51.420;7.036;2024-03-06T05:22:07;38.90;;;18.27;;
18623;SDS011;9441;51.420;7.036;2024-03-06T05:23:09;42.57;;;18.33;;
18623;SDS011;9441;51.420;7.036;2024-03-06T05:24:10;40.60;;;17.90;;
18623;SDS011;9441;51.420;7.036;2024-03-06T05:25:12;45.60;;;19.40;;
18623;SDS011;9441;51.420;7.036;2024-03-06T05:26:14;42.90;;;18.27;;
18623;SDS011;9441;51.420;7.036;2024-03-06T05:27:16;44.77;;;18.87;;
18623;SDS011;9441;51.420;7.036;2024-03-06T05:28:18;38.50;;;18.57;;
18623;SDS011;9441;51.420;7.036;2024-03-06T05:29:19;44.70;;;18.07;;
18623;SDS011;9441;51.420;7.036;2024-03-06T05:30:21;45.97;;;18.77;;
18623;SDS011;9441;51.420;7.036;2024-03-06T05:31:22;42.33;;;18.07;;
18623;SDS011;9441;51.420;7.036;2024-03-06T05:32:25;48.00;;;19.83;;
18623;SDS011;9441;51.420;7.036;2024-03-06T05:33:26;45.37;;;19.53;;
18623;SDS011;9441;51.420;7.036;2024-03-06T05:34:28;54.23;;;20.83;;
18623;SDS011;9441;51.420;7.036;2024-03-06T05:35:31;49.97;;;20.80;;
18623;SDS011;9441;51.420;7.036;2024-03-06T05:36:32;51.60;;;21.47;;
18623;SDS011;9441;51.420;7.036;2024-03-06T05:37:34;54.13;;;23.03;;
18623;SDS011;9441;51.420;7.036;2024-03-06T05:38:35;51.47;;;22.07;;
18623;SDS011;9441;51.420;7.036;2024-03-06T05:39:36;53.57;;;21.77;;
18623;SDS011;9441;51.420;7.036;2024-03-06T05:40:37;51.20;;;20.87;;
18623;SDS011;9441;51.420;7.036;2024-03-06T05:41:43;45.33;;;20.43;;
18623;SDS011;9441;51.420;7.036;2024-03-06T05:42:44;50.73;;;21.73;;
18623;SDS011;9441;51.420;7.036;2024-03-06T05:43:46;51.90;;;21.87;;
18623;SDS011;9441;51.420;7.036;2024-03-06T05:44:48;54.33;;;22.97;;
18623;SDS011;9441;51.420;7.036;2024-03-06T05:45:50;45.57;;;20.97;;
18623;SDS011;9441;51.420;7.036;2024-03-06T05:46:53;45.40;;;20.70;;
18623;SDS011;9441;51.420;7.036;2024-03-06T05:47:54;48.73;;;20.20;;
18623;SDS011;9441;51.420;7.036;2024-03-06T05:48:56;44.80;;;19.73;;
18623;SDS011;9441;51.420;7.036;2024-03-06T05:49:57;54.60;;;21.17;;
18623;SDS011;9441;51.420;7.036;2024-03-06T05:50:59;59.03;;;22.83;;
18623;SDS011;9441;51.420;7.036;2024-03-06T05:52:00;56.77;;;23.20;;
18623;SDS011;9441;51.420;7.036;2024-03-06T05:53:03;53.67;;;23.17;;
18623;SDS011;9441;51.420;7.036;2024-03-06T05:54:04;53.93;;;22.77;;
18623;SDS011;9441;51.420;7.036;2024-03-06T05:55:08;63.53;;;23.83;;
18623;SDS011;9441;51.420;7.036;2024-03-06T05:56:10;57.33;;;24.27;;
18623;SDS011;9441;51.420;7.036;2024-03-06T05:57:13;59.23;;;22.67;;
18623;SDS011;9441;51.420;7.036;2024-03-06T05:58:15;58.80;;;23.83;;
18623;SDS011;9441;51.420;7.036;2024-03-06T05:59:17;53.23;;;22.33;;
18623;SDS011;9441;51.420;7.036;2024-03-06T06:00:18;59.20;;;25.07;;
18623;SDS011;9441;51.420;7.036;2024-03-06T06:01:22;64.80;;;25.30;;
18623;SDS011;9441;51.420;7.036;2024-03-06T06:02:23;59.17;;;23.53;;
18623;SDS011;9441;51.420;7.036;2024-03-06T06:03:25;64.57;;;26.20;;
18623;SDS011;9441;51.420;7.036;2024-03-06T06:04:26;60.27;;;24.37;;
18623;SDS011;9441;51.420;7.036;2024-03-06T06:05:27;60.27;;;24.40;;
18623;SDS011;9441;51.420;7.036;2024-03-06T06:06:29;58.70;;;24.30;;
18623;SDS011;9441;51.420;7.036;2024-03-06T06:07:30;65.37;;;25.17;;